createdAt,value
2022-12-25T00:01:15.974Z,5.57
2022-12-25T00:03:49.456Z,5.58
2022-12-25T00:06:19.064Z,5.59
2022-12-25T00:08:47.561Z,5.60
2022-12-25T00:11:18.473Z,5.58
2022-12-25T00:13:47.753Z,5.57
2022-12-25T00:16:22.062Z,5.56
2022-12-25T00:18:52.418Z,5.59
2022-12-25T00:21:21.956Z,5.57
2022-12-25T00:23:59.929Z,5.53
2022-12-25T00:26:28.719Z,5.48
2022-12-25T00:28:58.188Z,5.43
2022-12-25T00:31:26.935Z,5.42
2022-12-25T00:33:55.412Z,5.42
2022-12-25T00:36:24.411Z,5.46
2022-12-25T00:38:52.844Z,5.49
2022-12-25T00:41:43.062Z,5.50
2022-12-25T00:44:14.122Z,5.52
2022-12-25T00:46:42.906Z,5.50
2022-12-25T00:49:12.417Z,5.51
2022-12-25T00:51:41.555Z,5.51
2022-12-25T00:54:10.199Z,5.53
2022-12-25T00:56:38.476Z,5.54
2022-12-25T00:59:06.864Z,5.55
2022-12-25T01:01:35.318Z,5.56
2022-12-25T01:04:04.304Z,5.55
2022-12-25T01:06:33.325Z,5.55
2022-12-25T01:09:20.464Z,5.57
2022-12-25T01:11:48.932Z,5.55
2022-12-25T01:14:17.104Z,5.53
2022-12-25T01:16:45.596Z,5.49
2022-12-25T01:19:13.863Z,5.43
2022-12-25T01:21:42.069Z,5.37
2022-12-25T01:24:10.237Z,5.33
2022-12-25T01:26:38.501Z,5.30
2022-12-25T01:29:07.313Z,5.25
2022-12-25T01:31:35.913Z,5.18
2022-12-25T01:34:04.811Z,5.12
2022-12-25T01:36:33.771Z,5.10
2022-12-25T01:39:01.926Z,5.09
2022-12-25T01:41:30.579Z,5.08
2022-12-25T01:44:27.786Z,5.09
2022-12-25T01:46:56.673Z,5.06
2022-12-25T01:49:26.582Z,5.03
2022-12-25T01:51:59.467Z,4.98
2022-12-25T01:54:32.244Z,4.96
2022-12-25T01:57:05.678Z,4.88
2022-12-25T01:59:33.830Z,4.83
2022-12-25T02:02:02.637Z,4.87
2022-12-25T02:04:49.337Z,4.86
2022-12-25T02:07:20.698Z,4.79
2022-12-25T02:09:49.389Z,4.76
2022-12-25T02:12:24.216Z,4.71
2022-12-25T02:15:02.878Z,4.63
2022-12-25T02:17:38.993Z,4.53
2022-12-25T02:20:30.443Z,4.51
2022-12-25T02:23:33.307Z,4.46
2022-12-25T02:26:32.130Z,4.48
2022-12-25T02:29:26.695Z,4.44
2022-12-25T02:32:02.971Z,4.36
2022-12-25T02:34:46.396Z,4.35
2022-12-25T02:37:28.586Z,4.34
2022-12-25T02:40:06.896Z,4.35
2022-12-25T02:43:13.486Z,4.37
2022-12-25T02:46:14.682Z,4.36
2022-12-25T02:49:11.582Z,4.36
2022-12-25T02:52:04.582Z,4.36
2022-12-25T02:54:57.899Z,4.36
2022-12-25T02:57:51.066Z,4.38
2022-12-25T03:00:38.508Z,4.40
2022-12-25T03:03:29.478Z,4.36
2022-12-25T03:06:22.256Z,4.18
2022-12-25T03:09:16.495Z,4.20
2022-12-25T03:11:47.714Z,4.27
2022-12-25T03:14:34.825Z,4.32
2022-12-25T03:17:03.222Z,4.34
2022-12-25T03:19:53.582Z,4.26
2022-12-25T03:22:47.672Z,4.19
2022-12-25T03:25:35.192Z,4.17
2022-12-25T03:28:05.526Z,4.12
2022-12-25T03:31:12.277Z,4.12
2022-12-25T03:34:21.962Z,4.16
2022-12-25T03:37:23.199Z,4.22
2022-12-25T03:40:25.647Z,4.21
2022-12-25T03:43:20.692Z,4.25
2022-12-25T03:46:12.730Z,4.22
2022-12-25T03:49:04.657Z,4.21
2022-12-25T03:51:55.583Z,4.21
2022-12-25T03:54:46.942Z,4.32
2022-12-25T03:57:34.029Z,4.39
2022-12-25T04:00:21.121Z,4.41
2022-12-25T04:03:08.292Z,4.37
2022-12-25T04:05:55.508Z,4.33
2022-12-25T04:08:42.510Z,4.34
2022-12-25T04:11:29.625Z,4.37
2022-12-25T04:14:17.545Z,4.36
2022-12-25T04:17:04.779Z,4.33
2022-12-25T04:19:51.798Z,4.28
2022-12-25T04:22:39.417Z,4.27
2022-12-25T04:25:27.132Z,4.30
2022-12-25T04:28:20.328Z,4.31
2022-12-25T04:31:07.741Z,4.26
2022-12-25T04:33:54.692Z,4.17
2022-12-25T04:36:23.045Z,4.24
2022-12-25T04:38:51.218Z,4.29
2022-12-25T04:41:19.490Z,4.30
2022-12-25T04:43:47.880Z,4.26
2022-12-25T04:46:16.090Z,4.34
2022-12-25T04:48:44.435Z,4.41
2022-12-25T04:51:18.457Z,4.32
2022-12-25T04:53:47.606Z,4.34
2022-12-25T04:56:17.047Z,4.38
2022-12-25T04:58:46.442Z,4.36
2022-12-25T05:01:15.686Z,4.35
2022-12-25T05:03:44.051Z,4.31
2022-12-25T05:06:12.615Z,4.34
2022-12-25T05:08:41.843Z,4.35
2022-12-25T05:11:13.268Z,4.36
2022-12-25T05:13:41.518Z,4.34
2022-12-25T05:16:21.157Z,4.23
2022-12-25T05:18:51.203Z,4.24
2022-12-25T05:21:20.824Z,4.20
2022-12-25T05:23:52.685Z,4.13
2022-12-25T05:26:23.806Z,4.18
2022-12-25T05:28:52.313Z,4.15
2022-12-25T05:31:21.006Z,4.05
2022-12-25T05:33:51.571Z,4.05
2022-12-25T05:36:20.533Z,4.09
2022-12-25T05:38:48.800Z,4.16
2022-12-25T05:41:17.285Z,4.20
2022-12-25T05:43:45.547Z,4.16
2022-12-25T05:46:14.598Z,4.09
2022-12-25T05:48:42.779Z,4.04
2022-12-25T05:51:14.243Z,3.95
2022-12-25T05:53:43.795Z,3.88
2022-12-25T05:56:12.273Z,3.79
2022-12-25T05:58:41.341Z,3.79
2022-12-25T06:01:22.363Z,3.83
2022-12-25T06:03:51.316Z,3.75
2022-12-25T06:06:19.730Z,3.66
2022-12-25T06:08:48.071Z,3.67
2022-12-25T06:11:16.311Z,3.72
2022-12-25T06:13:45.364Z,3.69
2022-12-25T06:16:14.879Z,3.63
2022-12-25T06:18:47.909Z,3.57
2022-12-25T06:21:16.562Z,3.46
2022-12-25T06:23:45.564Z,3.51
2022-12-25T06:26:17.783Z,3.59
2022-12-25T06:28:46.532Z,3.58
2022-12-25T06:31:18.002Z,3.55
2022-12-25T06:33:46.779Z,3.60
2022-12-25T06:36:23.716Z,3.57
2022-12-25T06:38:53.044Z,3.52
2022-12-25T06:41:24.525Z,3.49
2022-12-25T06:43:55.592Z,3.43
2022-12-25T06:46:27.110Z,3.39
2022-12-25T06:48:55.679Z,3.34
2022-12-25T06:51:27.762Z,3.37
2022-12-25T06:53:56.744Z,3.30
2022-12-25T06:56:27.927Z,3.27
2022-12-25T06:59:00.095Z,3.29
2022-12-25T07:01:30.146Z,3.23
2022-12-25T07:04:02.558Z,3.18
2022-12-25T07:06:31.069Z,3.19
2022-12-25T07:08:59.712Z,3.18
2022-12-25T07:11:28.764Z,3.34
2022-12-25T07:13:57.404Z,3.49
2022-12-25T07:16:26.021Z,3.55
2022-12-25T07:18:54.294Z,3.63
2022-12-25T07:21:22.493Z,3.62
2022-12-25T07:23:50.928Z,3.72
2022-12-25T07:26:19.341Z,3.82
2022-12-25T07:28:48.294Z,3.94
2022-12-25T07:31:18.284Z,4.08
2022-12-25T07:33:46.914Z,4.17
2022-12-25T07:36:15.786Z,4.28
2022-12-25T07:38:50.055Z,4.42
2022-12-25T07:41:21.280Z,4.46
2022-12-25T07:43:51.594Z,4.58
2022-12-25T07:46:21.420Z,4.66
2022-12-25T07:48:50.721Z,4.68
2022-12-25T07:51:19.694Z,4.66
2022-12-25T07:53:47.766Z,4.65
2022-12-25T07:56:20.900Z,4.68
2022-12-25T07:58:50.479Z,4.79
2022-12-25T08:01:26.751Z,4.90
2022-12-25T08:04:00.410Z,4.99
2022-12-25T08:06:35.230Z,5.06
2022-12-25T08:09:09.510Z,5.09
2022-12-25T08:11:38.487Z,5.10
2022-12-25T08:14:08.397Z,5.22
2022-12-25T08:16:39.992Z,5.28
2022-12-25T08:19:09.680Z,5.36
2022-12-25T08:21:38.457Z,5.47
2022-12-25T08:24:08.198Z,5.49
2022-12-25T08:26:36.551Z,5.47
2022-12-25T08:29:04.671Z,5.39
2022-12-25T08:31:37.164Z,5.48
2022-12-25T08:34:08.446Z,5.64
2022-12-25T08:36:37.709Z,5.68
2022-12-25T08:39:05.924Z,5.70
2022-12-25T08:41:37.179Z,5.68
2022-12-25T08:44:07.231Z,5.68
2022-12-25T08:46:36.852Z,5.70
2022-12-25T08:49:05.796Z,5.72
2022-12-25T08:51:34.435Z,5.80
2022-12-25T08:54:02.656Z,5.95
2022-12-25T08:56:31.253Z,6.07
2022-12-25T08:58:59.642Z,6.14
2022-12-25T09:01:29.190Z,6.27
2022-12-25T09:03:57.567Z,6.80
2022-12-25T09:06:25.821Z,7.13
2022-12-25T09:08:55.299Z,7.25
2022-12-25T09:11:24.326Z,7.50
2022-12-25T09:13:55.129Z,7.69
2022-12-25T09:16:23.776Z,7.78
2022-12-25T09:18:52.408Z,8.27
2022-12-25T09:21:20.577Z,8.55
2022-12-25T09:23:49.227Z,8.70
2022-12-25T09:26:18.941Z,8.88
2022-12-25T09:28:52.051Z,9.13
2022-12-25T09:31:22.152Z,9.54
2022-12-25T09:33:51.151Z,9.79
2022-12-25T09:36:21.594Z,9.91
2022-12-25T09:38:49.775Z,9.97
2022-12-25T09:41:18.520Z,9.95
2022-12-25T09:44:10.615Z,9.83
2022-12-25T09:46:51.028Z,9.70
2022-12-25T09:49:54.194Z,9.78
2022-12-25T09:52:49.177Z,9.66
2022-12-25T09:55:20.840Z,9.50
2022-12-25T09:57:58.888Z,9.33
2022-12-25T10:00:41.601Z,9.10
2022-12-25T10:03:12.888Z,9.00
2022-12-25T10:05:53.486Z,8.92
2022-12-25T10:08:49.816Z,8.77
2022-12-25T10:11:42.697Z,8.70
2022-12-25T10:14:42.383Z,8.60
2022-12-25T10:17:33.344Z,8.54
2022-12-25T10:20:04.725Z,8.51
2022-12-25T10:22:44.575Z,8.39
2022-12-25T10:25:21.472Z,8.28
2022-12-25T10:27:54.474Z,8.31
2022-12-25T10:30:26.130Z,8.39
2022-12-25T10:32:57.862Z,8.49
2022-12-25T10:35:29.777Z,8.57
2022-12-25T10:38:02.396Z,8.55
2022-12-25T10:41:13.298Z,8.57
2022-12-25T10:43:51.861Z,8.65
2022-12-25T10:46:24.610Z,8.67
2022-12-25T10:49:03.131Z,8.63
2022-12-25T10:51:35.195Z,8.61
2022-12-25T10:54:21.688Z,8.61
2022-12-25T10:57:00.819Z,8.58
2022-12-25T10:59:43.543Z,8.49
2022-12-25T11:02:37.441Z,8.44
2022-12-25T11:05:25.812Z,8.36
2022-12-25T11:07:55.494Z,8.24
2022-12-25T11:10:32.902Z,8.14
2022-12-25T11:13:02.954Z,8.03
2022-12-25T11:15:42.681Z,7.93
2022-12-25T11:18:28.639Z,7.98
2022-12-25T11:21:00.106Z,8.05
2022-12-25T11:23:31.571Z,8.10
2022-12-25T11:26:05.854Z,8.17
2022-12-25T11:28:39.206Z,8.09
2022-12-25T11:31:15.916Z,8.02
2022-12-25T11:34:06.635Z,8.00
2022-12-25T11:36:48.543Z,7.91
2022-12-25T11:39:23.152Z,7.80
2022-12-25T11:42:05.989Z,7.77
2022-12-25T11:45:01.311Z,7.76
2022-12-25T11:47:54.533Z,7.71
2022-12-25T11:50:28.817Z,7.68
2022-12-25T11:53:02.124Z,7.61
2022-12-25T11:55:57.373Z,7.68
2022-12-25T11:58:36.482Z,7.77
2022-12-25T12:01:18.141Z,7.76
2022-12-25T12:03:46.425Z,7.68
2022-12-25T12:06:14.779Z,7.63
2022-12-25T12:08:43.853Z,7.60
2022-12-25T12:11:35.698Z,7.56
2022-12-25T12:14:23.229Z,7.48
2022-12-25T12:16:52.437Z,7.45
2022-12-25T12:19:29.778Z,7.43
2022-12-25T12:22:01.739Z,7.41
2022-12-25T12:24:37.039Z,7.38
2022-12-25T12:27:25.057Z,7.38
2022-12-25T12:29:57.717Z,7.39
2022-12-25T12:32:43.193Z,7.45
2022-12-25T12:35:22.088Z,7.62
2022-12-25T12:38:03.576Z,7.77
2022-12-25T12:40:36.072Z,7.91
2022-12-25T12:43:06.130Z,8.01
2022-12-25T12:45:38.414Z,8.08
2022-12-25T12:48:25.213Z,8.13
2022-12-25T12:51:11.105Z,8.17
2022-12-25T12:53:41.999Z,8.21
2022-12-25T12:56:19.877Z,8.21
2022-12-25T12:58:51.236Z,8.20
2022-12-25T13:01:45.140Z,8.16
2022-12-25T13:04:13.772Z,8.09
2022-12-25T13:06:58.259Z,8.04
2022-12-25T13:09:48.412Z,7.95
2022-12-25T13:12:18.095Z,7.80
2022-12-25T13:14:48.525Z,7.76
2022-12-25T13:17:24.194Z,7.67
2022-12-25T13:19:57.519Z,7.61
2022-12-25T13:22:36.687Z,7.56
2022-12-25T13:25:14.798Z,7.52
2022-12-25T13:27:43.139Z,7.48
2022-12-25T13:30:14.376Z,7.43
2022-12-25T13:32:45.958Z,7.39
2022-12-25T13:35:15.801Z,7.36
2022-12-25T13:37:45.346Z,7.31
2022-12-25T13:40:23.890Z,7.27
2022-12-25T13:43:00.879Z,7.22
2022-12-25T13:45:31.263Z,7.18
2022-12-25T13:48:14.740Z,7.14
2022-12-25T13:50:48.478Z,7.10
2022-12-25T13:53:18.140Z,7.06
2022-12-25T13:55:52.752Z,7.03
2022-12-25T13:58:31.239Z,6.99
2022-12-25T14:01:02.851Z,6.94
2022-12-25T14:03:41.316Z,6.89
2022-12-25T14:06:26.857Z,6.84
2022-12-25T14:08:58.031Z,6.76
2022-12-25T14:11:29.729Z,6.72
2022-12-25T14:14:04.352Z,6.74
2022-12-25T14:16:33.537Z,6.71
2022-12-25T14:19:03.080Z,6.66
2022-12-25T14:21:41.870Z,6.57
2022-12-25T14:24:15.542Z,6.50
2022-12-25T14:26:44.428Z,6.38
2022-12-25T14:29:19.762Z,6.30
2022-12-25T14:31:50.978Z,6.23
2022-12-25T14:34:23.233Z,6.19
2022-12-25T14:36:52.775Z,6.18
2022-12-25T14:39:29.077Z,6.17
2022-12-25T14:41:58.728Z,6.11
2022-12-25T14:44:40.429Z,6.02
2022-12-25T14:47:18.153Z,5.92
2022-12-25T14:49:47.810Z,5.86
2022-12-25T14:52:19.420Z,5.78
2022-12-25T14:55:02.242Z,5.74
2022-12-25T14:57:35.223Z,5.74
2022-12-25T15:00:08.101Z,5.70
2022-12-25T15:02:45.794Z,5.60
2022-12-25T15:05:27.683Z,5.48
2022-12-25T15:08:11.627Z,5.36
2022-12-25T15:13:33.173Z,5.16
2022-12-25T15:16:04.855Z,5.13
2022-12-25T15:18:39.872Z,5.06
2022-12-25T15:21:21.509Z,4.94
2022-12-25T15:23:49.790Z,4.82
2022-12-25T15:26:18.966Z,4.75
2022-12-25T15:28:47.556Z,4.65
2022-12-25T15:31:30.630Z,4.59
2022-12-25T15:34:06.584Z,4.49
2022-12-25T15:36:34.866Z,4.31
2022-12-25T15:39:04.424Z,4.20
2022-12-25T15:41:54.683Z,4.06
2022-12-25T15:44:25.218Z,3.89
2022-12-25T15:46:53.671Z,3.87
2022-12-25T15:49:21.864Z,3.79
2022-12-25T15:51:50.480Z,3.67
2022-12-25T15:54:19.243Z,3.61
2022-12-25T15:56:53.835Z,3.50
2022-12-25T15:59:23.821Z,3.49
2022-12-25T16:01:58.172Z,3.38
2022-12-25T16:04:28.338Z,3.28
2022-12-25T16:06:56.824Z,3.29
2022-12-25T16:09:26.694Z,3.33
2022-12-25T16:11:54.923Z,3.35
2022-12-25T16:14:24.145Z,3.35
2022-12-25T16:16:52.387Z,3.15
2022-12-25T16:19:20.866Z,3.03
2022-12-25T16:21:49.062Z,2.93
2022-12-25T16:24:17.672Z,2.87
2022-12-25T16:26:46.111Z,2.82
2022-12-25T16:29:15.032Z,2.76
2022-12-25T16:31:43.370Z,2.78
2022-12-25T16:34:11.697Z,2.77
2022-12-25T16:36:41.003Z,2.72
2022-12-25T16:39:09.143Z,2.63
2022-12-25T16:41:38.170Z,2.57
2022-12-25T16:44:09.631Z,2.48
2022-12-25T16:46:40.381Z,2.47
2022-12-25T16:49:09.245Z,2.44
2022-12-25T16:51:37.403Z,2.42
2022-12-25T16:54:07.111Z,2.33
2022-12-25T16:56:36.914Z,2.34
2022-12-25T16:59:04.991Z,2.35
2022-12-25T17:01:33.924Z,2.28
2022-12-25T17:04:02.527Z,2.32
2022-12-25T17:06:31.060Z,2.38
2022-12-25T17:09:00.661Z,2.39
2022-12-25T17:11:30.439Z,2.38
2022-12-25T17:14:02.321Z,2.33
2022-12-25T17:16:34.182Z,2.28
2022-12-25T17:19:10.952Z,2.23
2022-12-25T17:21:40.691Z,2.20
2022-12-25T17:24:09.387Z,2.16
2022-12-25T17:26:38.219Z,2.12
2022-12-25T17:29:06.674Z,2.03
2022-12-25T17:31:35.248Z,1.99
2022-12-25T17:34:05.094Z,1.85
2022-12-25T17:36:34.147Z,1.89
2022-12-25T17:39:05.393Z,1.88
2022-12-25T17:41:35.015Z,1.81
2022-12-25T17:44:04.197Z,1.76
2022-12-25T17:46:33.119Z,1.75
2022-12-25T17:49:01.884Z,1.80
2022-12-25T17:51:32.116Z,1.74
2022-12-25T17:54:03.341Z,1.60
2022-12-25T17:56:32.898Z,1.50
2022-12-25T17:59:06.818Z,1.45
2022-12-25T18:01:38.552Z,1.42
2022-12-25T18:04:07.194Z,1.35
2022-12-25T18:06:37.137Z,1.33
2022-12-25T18:09:06.630Z,1.32
2022-12-25T18:11:39.794Z,1.23
2022-12-25T18:14:12.329Z,1.23
2022-12-25T18:16:43.491Z,1.21
2022-12-25T18:19:13.097Z,1.32
2022-12-25T18:21:41.351Z,1.38
2022-12-25T18:24:10.432Z,1.32
2022-12-25T18:26:38.985Z,1.23
2022-12-25T18:29:07.952Z,1.16
2022-12-25T18:31:37.272Z,1.09
2022-12-25T18:34:05.706Z,1.01
2022-12-25T18:36:33.887Z,0.96
2022-12-25T18:39:02.510Z,0.96
2022-12-25T18:41:30.968Z,0.98
2022-12-25T18:44:00.091Z,0.99
2022-12-25T18:46:29.596Z,0.95
2022-12-25T18:48:58.034Z,0.85
2022-12-25T18:51:32.934Z,0.79
2022-12-25T18:54:04.733Z,0.77
2022-12-25T18:56:33.228Z,0.83
2022-12-25T18:59:01.701Z,0.80
2022-12-25T19:01:30.413Z,0.77
2022-12-25T19:04:04.591Z,0.74
2022-12-25T19:06:34.315Z,0.68
2022-12-25T19:09:09.263Z,0.74
2022-12-25T19:11:45.977Z,0.74
2022-12-25T19:14:15.628Z,0.70
2022-12-25T19:16:44.914Z,0.69
2022-12-25T19:19:14.641Z,0.60
2022-12-25T19:21:43.450Z,0.65
2022-12-25T19:24:11.577Z,0.77
2022-12-25T19:26:40.405Z,0.76
2022-12-25T19:29:08.538Z,0.84
2022-12-25T19:31:38.928Z,0.91
2022-12-25T19:34:09.159Z,0.95
2022-12-25T19:36:38.946Z,0.90
2022-12-25T19:39:08.744Z,0.72
2022-12-25T19:41:37.854Z,0.62
2022-12-25T19:44:06.848Z,0.59
2022-12-25T19:46:37.753Z,0.44
2022-12-25T19:49:08.052Z,0.37
2022-12-25T19:51:39.618Z,0.32
2022-12-25T19:54:11.531Z,0.22
2022-12-25T19:56:40.423Z,0.12
2022-12-25T19:59:08.846Z,0.09
2022-12-25T20:01:39.144Z,-0.06
2022-12-25T20:04:09.809Z,-0.15
2022-12-25T20:06:42.696Z,-0.16
2022-12-25T20:09:21.084Z,-0.10
2022-12-25T20:11:50.478Z,-0.07
2022-12-25T20:14:19.830Z,-0.07
2022-12-25T20:16:48.047Z,-0.14
2022-12-25T20:19:16.823Z,-0.21
2022-12-25T20:21:45.992Z,-0.26
2022-12-25T20:24:14.221Z,-0.21
2022-12-25T20:26:47.675Z,-0.11
2022-12-25T20:29:16.724Z,-0.09
2022-12-25T20:31:45.142Z,-0.09
2022-12-25T20:34:13.379Z,-0.03
2022-12-25T20:36:45.399Z,0.00
2022-12-25T20:39:14.334Z,-0.15
2022-12-25T20:41:45.857Z,-0.10
2022-12-25T20:44:16.362Z,0.01
2022-12-25T20:46:44.419Z,-0.09
2022-12-25T20:49:13.895Z,-0.10
2022-12-25T20:51:44.068Z,-0.11
2022-12-25T20:54:14.040Z,-0.11
2022-12-25T20:56:42.222Z,-0.06
2022-12-25T20:59:12.056Z,-0.13
2022-12-25T21:01:42.350Z,-0.16
2022-12-25T21:04:16.029Z,-0.12
2022-12-25T21:06:44.765Z,0.01
2022-12-25T21:09:13.427Z,-0.01
2022-12-25T21:11:41.624Z,-0.09
2022-12-25T21:14:11.340Z,-0.09
2022-12-25T21:16:39.645Z,-0.04
2022-12-25T21:19:08.041Z,-0.02
2022-12-25T21:21:36.362Z,-0.07
2022-12-25T21:24:05.134Z,-0.20
2022-12-25T21:26:33.166Z,-0.15
2022-12-25T21:29:04.567Z,-0.11
2022-12-25T21:31:56.061Z,-0.07
2022-12-25T21:34:24.269Z,-0.01
2022-12-25T21:36:52.912Z,0.02
2022-12-25T21:39:22.076Z,0.01
2022-12-25T21:41:50.232Z,-0.06
2022-12-25T21:44:19.065Z,-0.14
2022-12-25T21:46:47.231Z,-0.11
2022-12-25T21:49:35.591Z,-0.08
2022-12-25T21:52:09.978Z,-0.08
2022-12-25T21:54:38.368Z,-0.11
2022-12-25T21:57:06.623Z,-0.06
2022-12-25T21:59:35.930Z,-0.09
2022-12-25T22:02:11.703Z,-0.21
2022-12-25T22:04:40.322Z,-0.26
2022-12-25T22:07:19.201Z,-0.25
2022-12-25T22:09:49.947Z,-0.31
2022-12-25T22:12:39.865Z,-0.30
2022-12-25T22:15:10.504Z,-0.20
2022-12-25T22:18:00.063Z,-0.27
2022-12-25T22:20:34.732Z,-0.38
2022-12-25T22:23:03.233Z,-0.44
2022-12-25T22:25:32.947Z,-0.47
2022-12-25T22:28:01.143Z,-0.43
2022-12-25T22:30:30.420Z,-0.34
2022-12-25T22:32:58.865Z,-0.35
2022-12-25T22:35:27.125Z,-0.29
2022-12-25T22:37:56.007Z,-0.38
2022-12-25T22:40:24.461Z,-0.41
2022-12-25T22:42:56.797Z,-0.35
2022-12-25T22:45:24.991Z,-0.44
2022-12-25T22:47:53.240Z,-0.57
2022-12-25T22:50:21.677Z,-0.68
2022-12-25T22:52:49.819Z,-0.73
2022-12-25T22:55:19.455Z,-0.65
2022-12-25T22:57:49.201Z,-0.58
2022-12-25T23:00:17.487Z,-0.62
2022-12-25T23:02:46.262Z,-0.61
2022-12-25T23:05:14.532Z,-0.65
2022-12-25T23:07:42.917Z,-0.62
2022-12-25T23:10:11.701Z,-0.69
2022-12-25T23:12:58.601Z,-0.73
2022-12-25T23:15:28.207Z,-0.78
2022-12-25T23:18:15.226Z,-0.74
2022-12-25T23:21:03.076Z,-0.65
2022-12-25T23:23:50.239Z,-0.54
2022-12-25T23:26:20.411Z,-0.49
2022-12-25T23:29:07.521Z,-0.48
2022-12-25T23:31:38.459Z,-0.55
2022-12-25T23:34:08.170Z,-0.56
2022-12-25T23:36:36.891Z,-0.55
2022-12-25T23:39:09.412Z,-0.49
2022-12-25T23:41:40.605Z,-0.40
2022-12-25T23:44:10.807Z,-0.33
2022-12-25T23:46:39.887Z,-0.27
2022-12-25T23:49:08.796Z,-0.15
2022-12-25T23:51:44.857Z,0.00
2022-12-25T23:54:15.717Z,0.14
2022-12-25T23:56:44.280Z,0.22
2022-12-25T23:59:13.274Z,0.18
